Terminal Aerodrome Forecast
Issued by NWS Des Moines, IA

Home | Current Version | Previous Version | Text Only | Print | Product List | Glossary On
Versions: 1 2 3 4 5 6 7 8 9 10 11 12 13 14 15 16 17
000
FTUS43 KDMX 270310 AAA
TAFDSM
TAF AMD
KDSM 270310Z 2703/2724 35004KT P6SM FEW010 BKN035 OVC050
     FM270700 02005KT P6SM BKN045
     FM271200 02006KT 5SM BR BKN029
     FM271300 02006KT P6SM SCT025 BKN035
     FM271600 03007KT P6SM BKN040=

USA.gov is the U.S. government's official web portal to all federal, state and local government web resources and services.